Terminal Aerodrome Forecast
Issued by NWS Tampa Bay Area, FL

Home | Current Version | Previous Version | Text Only | Print | Product List | Glossary On
Versions: 1 2 3 4 5 6 7 8 9 10 11 12 13 14 15 16 17 18 19 20 21 22 23 24
000
FTUS42 KTBW 282341
TAFTPA
TAF
KTPA 282341Z 2900/2924 27007KT P6SM FEW040 SCT080
     FM290300 VRB03KT P6SM SCT080 SCT250
     FM291400 22005KT P6SM FEW020 SCT080 SCT250
     FM291600 25007KT P6SM VCTS BKN035CB
     FM292000 27010KT P6SM SCT050 SCT100 BKN250=

USA.gov is the U.S. government's official web portal to all federal, state and local government web resources and services.